createdAt,value
2017-11-22T00:06:14.650Z,2.70
2017-11-22T00:15:51.869Z,2.90
2017-11-22T00:25:28.041Z,3.09
2017-11-22T00:35:05.200Z,3.09
2017-11-22T00:44:41.379Z,3.09
2017-11-22T00:54:17.304Z,2.90
2017-11-22T01:03:53.938Z,2.80
2017-11-22T01:13:30.254Z,2.70
2017-11-22T01:23:05.714Z,2.70
2017-11-22T01:32:43.212Z,2.80
2017-11-22T01:42:19.359Z,2.70
2017-11-22T01:51:56.223Z,2.70
2017-11-22T02:01:32.118Z,2.70
2017-11-22T02:11:07.972Z,2.70
2017-11-22T02:20:44.235Z,2.70
2017-11-22T02:30:20.497Z,2.70
2017-11-22T02:39:56.601Z,2.60
2017-11-22T02:49:32.745Z,2.70
2017-11-22T02:59:09.158Z,2.70
2017-11-22T03:08:43.413Z,2.80
2017-11-22T03:18:25.355Z,2.70
2017-11-22T03:28:02.258Z,2.70
2017-11-22T03:37:38.622Z,2.80
2017-11-22T03:47:14.624Z,2.70
2017-11-22T03:56:51.516Z,2.80
2017-11-22T04:06:27.709Z,2.80
2017-11-22T04:16:03.956Z,2.70
2017-11-22T04:25:39.651Z,2.70
2017-11-22T04:35:16.677Z,2.70
2017-11-22T04:44:52.891Z,2.70
2017-11-22T04:54:28.861Z,2.60
2017-11-22T05:04:06.128Z,2.70
2017-11-22T05:13:42.552Z,2.60
2017-11-22T05:23:18.439Z,2.60
2017-11-22T05:32:55.203Z,2.60
2017-11-22T05:42:32.305Z,2.80
2017-11-22T05:52:08.469Z,2.60
2017-11-22T06:01:44.799Z,2.70
2017-11-22T06:11:21.540Z,2.90
2017-11-22T06:20:58.085Z,2.70
2017-11-22T06:30:34.301Z,2.70
2017-11-22T06:40:10.713Z,2.70
2017-11-22T06:49:47.073Z,2.90
2017-11-22T06:59:23.536Z,2.99
2017-11-22T07:08:59.857Z,3.29
2017-11-22T07:18:35.956Z,3.48
2017-11-22T07:28:12.266Z,3.48
2017-11-22T07:37:48.622Z,3.68
2017-11-22T07:47:25.206Z,3.97
2017-11-22T07:57:01.554Z,4.07
2017-11-22T08:06:37.731Z,4.36
2017-11-22T08:16:14.117Z,4.66
2017-11-22T08:25:50.857Z,5.05
2017-11-22T08:35:27.123Z,5.24
2017-11-22T08:45:04.065Z,5.54
2017-11-22T08:54:40.314Z,5.93
2017-11-22T09:04:17.057Z,6.32
2017-11-22T09:13:54.052Z,6.61
2017-11-22T09:23:30.759Z,6.91
2017-11-22T09:33:06.809Z,7.20
2017-11-22T09:42:43.431Z,7.79
2017-11-22T09:52:20.287Z,8.18
2017-11-22T10:01:57.172Z,8.47
2017-11-22T10:11:34.074Z,8.76
2017-11-22T10:21:10.430Z,9.25
2017-11-22T10:30:47.423Z,9.55
2017-11-22T10:40:23.958Z,9.94
2017-11-22T10:50:01.506Z,10.43
2017-11-22T10:59:37.354Z,10.04
2017-11-22T11:09:14.132Z,9.74
2017-11-22T11:18:49.514Z,9.74
2017-11-22T11:28:26.248Z,9.74
2017-11-22T11:38:02.036Z,9.55
2017-11-22T11:47:38.042Z,9.55
2017-11-22T11:57:13.966Z,9.55
2017-11-22T12:06:50.213Z,9.65
2017-11-22T12:16:27.225Z,10.23
2017-11-22T12:26:04.300Z,11.01
2017-11-22T12:35:41.027Z,11.11
2017-11-22T12:45:16.962Z,11.11
2017-11-22T12:54:54.237Z,11.01
2017-11-22T13:04:29.987Z,11.21
2017-11-22T13:14:07.635Z,11.31
2017-11-22T13:23:46.052Z,12.29
2017-11-22T13:33:24.961Z,11.70
2017-11-22T13:42:54.320Z,11.11
2017-11-22T13:52:32.045Z,11.02
2017-11-22T14:02:07.136Z,10.72
2017-11-22T14:11:43.382Z,10.43
2017-11-22T14:21:19.851Z,10.04
2017-11-22T14:30:55.329Z,9.25
2017-11-22T14:40:30.137Z,8.57
2017-11-22T14:50:05.331Z,8.08
2017-11-22T14:59:40.473Z,7.79
2017-11-22T15:09:15.497Z,7.40
2017-11-22T15:18:51.892Z,6.61
2017-11-22T15:28:34.059Z,6.03
2017-11-22T15:37:59.949Z,5.34
2017-11-22T15:47:34.586Z,4.95
2017-11-22T15:57:11.192Z,4.95
2017-11-22T16:06:47.128Z,4.66
2017-11-22T16:16:23.266Z,4.56
2017-11-22T16:26:03.065Z,4.27
2017-11-22T16:35:32.702Z,4.17
2017-11-22T16:45:09.079Z,3.78
2017-11-22T16:54:45.437Z,3.58
2017-11-22T17:04:22.018Z,3.39
2017-11-22T17:13:57.836Z,3.19
2017-11-22T17:23:33.493Z,2.99
2017-11-22T17:33:09.034Z,2.90
2017-11-22T17:42:45.244Z,2.90
2017-11-22T17:52:25.384Z,2.70
2017-11-22T18:01:55.406Z,2.41
2017-11-22T18:11:31.021Z,2.51
2017-11-22T18:21:06.757Z,2.51
2017-11-22T18:30:43.314Z,2.21
2017-11-22T18:40:18.959Z,1.92
2017-11-22T18:49:54.895Z,2.41
2017-11-22T18:59:31.185Z,2.21
2017-11-22T19:09:07.729Z,1.72
2017-11-22T19:18:43.306Z,1.53
2017-11-22T19:28:19.418Z,1.53
2017-11-22T19:37:55.691Z,1.43
2017-11-22T19:47:31.997Z,1.43
2017-11-22T19:57:07.599Z,1.24
2017-11-22T20:06:43.335Z,1.14
2017-11-22T20:16:18.555Z,1.04
2017-11-22T20:25:54.808Z,0.75
2017-11-22T20:35:31.159Z,0.65
2017-11-22T20:45:08.016Z,0.65
2017-11-22T20:54:44.035Z,0.45
2017-11-22T21:04:19.686Z,0.35
2017-11-22T21:13:59.848Z,0.45
2017-11-22T21:23:30.329Z,0.35
2017-11-22T21:33:06.470Z,0.45
2017-11-22T21:42:43.013Z,0.55
2017-11-22T21:52:18.892Z,0.45
2017-11-22T22:01:54.428Z,0.36
2017-11-22T22:11:30.420Z,0.35
2017-11-22T22:21:05.957Z,0.35
2017-11-22T22:30:42.943Z,0.16
2017-11-22T22:40:19.269Z,0.26
2017-11-22T22:49:55.211Z,0.06
2017-11-22T22:59:31.184Z,-0.14
2017-11-22T23:09:07.045Z,-0.23
2017-11-22T23:18:43.141Z,-0.33
2017-11-22T23:28:19.737Z,-0.53
2017-11-22T23:37:56.562Z,-0.53
2017-11-22T23:47:36.959Z,-0.62
2017-11-22T23:57:07.199Z,-0.72
